createdAt,value
2023-11-12T00:00:02.354Z,991.13
2023-11-12T00:05:01.900Z,991.07
2023-11-12T00:10:01.563Z,990.97
2023-11-12T00:15:02.259Z,990.93
2023-11-12T00:20:01.598Z,990.91
2023-11-12T00:25:01.893Z,990.87
2023-11-12T00:30:02.344Z,990.88
2023-11-12T00:35:01.543Z,990.81
2023-11-12T00:40:02.117Z,990.85
2023-11-12T00:45:01.520Z,990.79
2023-11-12T00:50:01.463Z,990.76
2023-11-12T00:55:01.723Z,990.71
2023-11-12T01:00:02.075Z,990.73
2023-11-12T01:05:01.555Z,990.74
2023-11-12T01:10:01.640Z,990.67
2023-11-12T01:15:02.354Z,990.7
2023-11-12T01:20:01.399Z,990.68
2023-11-12T01:25:02.156Z,990.6
2023-11-12T01:30:01.615Z,990.65
2023-11-12T01:35:02.202Z,990.59
2023-11-12T01:40:01.432Z,990.53
2023-11-12T01:45:02.390Z,990.51
2023-11-12T01:50:01.754Z,990.44
2023-11-12T01:55:01.723Z,990.43
2023-11-12T02:00:01.753Z,990.37
2023-11-12T02:05:01.993Z,990.48
2023-11-12T02:10:02.270Z,990.55
2023-11-12T02:15:02.295Z,990.52
2023-11-12T02:20:01.707Z,990.55
2023-11-12T02:25:02.342Z,990.52
2023-11-12T02:30:02.399Z,990.5
2023-11-12T02:35:02.007Z,990.54
2023-11-12T02:40:01.561Z,990.51
2023-11-12T02:45:01.926Z,990.52
2023-11-12T02:50:01.592Z,990.54
2023-11-12T02:55:02.151Z,990.51
2023-11-12T03:00:01.528Z,990.49
2023-11-12T03:05:01.733Z,990.46
2023-11-12T03:10:01.817Z,990.42
2023-11-12T03:15:01.882Z,990.45
2023-11-12T03:20:02.120Z,990.44
2023-11-12T03:25:01.859Z,990.37
2023-11-12T03:30:01.744Z,990.36
2023-11-12T03:35:01.852Z,990.33
2023-11-12T03:40:01.582Z,990.28
2023-11-12T03:45:01.518Z,990.24
2023-11-12T03:50:01.804Z,990.21
2023-11-12T03:55:01.725Z,990.2
2023-11-12T04:00:01.445Z,990.23
2023-11-12T04:05:01.676Z,990.16
2023-11-12T04:10:02.061Z,990.09
2023-11-12T04:15:01.636Z,990.05
2023-11-12T04:20:01.587Z,989.98
2023-11-12T04:25:01.768Z,989.88
2023-11-12T04:30:01.601Z,989.87
2023-11-12T04:35:02.359Z,989.87
2023-11-12T04:40:02.040Z,989.94
2023-11-12T04:45:01.864Z,989.92
2023-11-12T04:50:01.691Z,989.95
2023-11-12T04:55:01.338Z,989.9
2023-11-12T05:00:01.805Z,989.92
2023-11-12T05:05:02.064Z,989.89
2023-11-12T05:10:02.229Z,989.96
2023-11-12T05:15:01.906Z,989.98
2023-11-12T05:20:02.126Z,990.03
2023-11-12T05:25:02.242Z,990.03
2023-11-12T05:30:01.434Z,990.01
2023-11-12T05:35:01.730Z,990.04
2023-11-12T05:40:02.238Z,990.08
2023-11-12T05:45:01.420Z,990.09
2023-11-12T05:50:01.882Z,990.08
2023-11-12T05:55:02.159Z,990.08
2023-11-12T06:00:01.556Z,990.1
2023-11-12T06:05:01.952Z,990.12
2023-11-12T06:10:01.918Z,990.19
2023-11-12T06:15:02.109Z,990.21
2023-11-12T06:20:01.396Z,990.26
2023-11-12T06:25:01.913Z,990.28
2023-11-12T06:30:01.865Z,990.35
2023-11-12T06:35:02.274Z,990.41
2023-11-12T06:40:01.530Z,990.49
2023-11-12T06:45:01.769Z,990.48
2023-11-12T06:50:02.065Z,990.48
2023-11-12T06:55:01.347Z,990.58
2023-11-12T07:00:02.197Z,990.59
2023-11-12T07:05:01.394Z,990.68
2023-11-12T07:10:02.164Z,990.72
2023-11-12T07:15:01.326Z,990.75
2023-11-12T07:20:01.574Z,990.78
2023-11-12T07:25:01.710Z,990.84
2023-11-12T07:30:02.225Z,990.89
2023-11-12T07:35:01.303Z,990.96
2023-11-12T07:40:01.582Z,991.04
2023-11-12T07:45:07.101Z,991
2023-11-12T07:50:04.236Z,991.03
2023-11-12T07:55:01.372Z,991.14
2023-11-12T08:00:01.855Z,991.15
2023-11-12T08:05:01.535Z,991.1
2023-11-12T08:10:01.623Z,991.14
2023-11-12T08:15:01.903Z,991.18
2023-11-12T08:20:01.365Z,991.12
2023-11-12T08:25:01.735Z,991.13
2023-11-12T08:30:02.007Z,991.22
2023-11-12T08:35:02.003Z,991.23
2023-11-12T08:40:02.251Z,991.17
2023-11-12T08:45:02.131Z,991.2
2023-11-12T08:50:01.455Z,991.3
2023-11-12T08:55:01.630Z,991.33
2023-11-12T09:00:01.733Z,991.31
2023-11-12T09:05:02.039Z,991.39
2023-11-12T09:10:01.311Z,991.39
2023-11-12T09:15:01.633Z,991.42
2023-11-12T09:20:02.062Z,991.38
2023-11-12T09:25:10.646Z,991.38
2023-11-12T09:30:01.405Z,991.38
2023-11-12T09:35:01.806Z,991.38
2023-11-12T09:40:02.016Z,991.29
2023-11-12T09:45:01.442Z,991.34
2023-11-12T09:50:01.954Z,991.34
2023-11-12T09:55:01.613Z,991.28
2023-11-12T10:00:04.418Z,991.25
2023-11-12T10:05:01.406Z,991.1
2023-11-12T10:10:01.970Z,991.11
2023-11-12T10:15:01.952Z,991.12
2023-11-12T10:20:02.119Z,991.06
2023-11-12T10:25:02.116Z,991.08
2023-11-12T10:30:02.257Z,991.12
2023-11-12T10:35:01.292Z,991.08
2023-11-12T10:40:01.685Z,991.06
2023-11-12T10:45:01.865Z,991.09
2023-11-12T10:50:02.095Z,991.18
2023-11-12T10:55:02.287Z,991.14
2023-11-12T11:00:02.298Z,991.16
2023-11-12T11:05:01.338Z,991.17
2023-11-12T11:10:01.895Z,991.19
2023-11-12T11:15:01.851Z,991.18
2023-11-12T11:20:02.018Z,991.09
2023-11-12T11:25:01.645Z,991.19
2023-11-12T11:30:01.400Z,991.26
2023-11-12T11:35:01.645Z,991.26
2023-11-12T11:40:01.662Z,991.31
2023-11-12T11:45:02.028Z,991.28
2023-11-12T11:50:02.246Z,991.27
2023-11-12T11:55:01.744Z,991.25
2023-11-12T12:00:01.859Z,991.32
2023-11-12T12:05:01.358Z,991.31
2023-11-12T12:10:02.313Z,991.31
2023-11-12T12:15:02.010Z,991.36
2023-11-12T12:20:02.235Z,991.4
2023-11-12T12:25:02.370Z,991.38
2023-11-12T12:30:01.968Z,991.43
2023-11-12T12:35:02.334Z,991.39
2023-11-12T12:40:02.880Z,991.39
2023-11-12T12:45:01.604Z,991.32
2023-11-12T12:50:02.026Z,991.37
2023-11-12T12:55:02.312Z,991.28
2023-11-12T13:00:02.272Z,991.19
2023-11-12T13:05:02.243Z,991.11
2023-11-12T13:10:01.758Z,991.05
2023-11-12T13:15:01.792Z,991.04
2023-11-12T13:20:02.039Z,991.12
2023-11-12T13:25:01.363Z,991.24
2023-11-12T13:30:01.427Z,991.21
2023-11-12T13:35:01.994Z,991.19
2023-11-12T13:40:02.158Z,991.26
2023-11-12T13:45:01.662Z,991.17
2023-11-12T13:50:01.363Z,991.27
2023-11-12T13:55:01.856Z,991.36
2023-11-12T14:00:02.128Z,991.35
2023-11-12T14:05:01.631Z,991.3
2023-11-12T14:10:01.730Z,991.3
2023-11-12T14:15:02.133Z,991.27
2023-11-12T14:20:01.757Z,991.4
2023-11-12T14:25:04.439Z,991.46
2023-11-12T14:30:01.480Z,991.53
2023-11-12T14:35:02.049Z,991.52
2023-11-12T14:40:01.544Z,991.54
2023-11-12T14:45:01.559Z,991.53
2023-11-12T14:50:01.928Z,991.52
2023-11-12T14:55:01.376Z,991.49
2023-11-12T15:00:01.468Z,991.45
2023-11-12T15:05:01.436Z,991.45
2023-11-12T15:10:02.086Z,991.58
2023-11-12T15:15:02.210Z,991.63
2023-11-12T15:20:01.325Z,991.66
2023-11-12T15:25:01.357Z,991.6
2023-11-12T15:30:02.149Z,991.71
2023-11-12T15:35:01.930Z,991.77
2023-11-12T15:40:01.477Z,991.84
2023-11-12T15:45:01.666Z,991.94
2023-11-12T15:50:01.476Z,991.97
2023-11-12T15:55:02.071Z,991.98
2023-11-12T16:00:01.496Z,991.93
2023-11-12T16:05:02.214Z,991.98
2023-11-12T16:10:02.294Z,992.04
2023-11-12T16:15:01.616Z,992.1
2023-11-12T16:20:02.315Z,992.15
2023-11-12T16:25:01.551Z,992.25
2023-11-12T16:30:01.997Z,992.26
2023-11-12T16:35:02.278Z,992.27
2023-11-12T16:40:01.556Z,992.26
2023-11-12T16:45:01.827Z,992.26
2023-11-12T16:50:02.093Z,992.2
2023-11-12T16:55:01.614Z,992.17
2023-11-12T17:00:01.789Z,992.26
2023-11-12T17:05:02.112Z,992.26
2023-11-12T17:10:02.189Z,992.35
2023-11-12T17:15:02.204Z,992.32
2023-11-12T17:20:02.121Z,992.32
2023-11-12T17:25:03.842Z,992.4
2023-11-12T17:30:02.038Z,992.58
2023-11-12T17:35:02.154Z,992.45
2023-11-12T17:40:01.463Z,992.39
2023-11-12T17:45:02.165Z,992.36
2023-11-12T17:50:01.700Z,992.4
2023-11-12T17:55:01.682Z,992.31
2023-11-12T18:00:01.963Z,992.5
2023-11-12T18:05:02.361Z,992.6
2023-11-12T18:10:01.574Z,992.57
2023-11-12T18:15:01.750Z,992.63
2023-11-12T18:20:01.326Z,992.83
2023-11-12T18:25:01.524Z,993.06
2023-11-12T18:30:01.878Z,993.17
2023-11-12T18:35:02.172Z,993.17
2023-11-12T18:40:01.320Z,992.99
2023-11-12T18:45:01.581Z,992.86
2023-11-12T18:50:01.886Z,992.91
2023-11-12T18:55:02.143Z,992.74
2023-11-12T19:00:01.404Z,992.8
2023-11-12T19:05:01.954Z,992.87
2023-11-12T19:10:02.307Z,992.88
2023-11-12T19:15:02.117Z,992.94
2023-11-12T19:20:01.324Z,992.99
2023-11-12T19:25:01.805Z,993.05
2023-11-12T19:30:08.961Z,993.07
2023-11-12T19:35:01.880Z,993.05
2023-11-12T19:40:01.461Z,992.94
2023-11-12T19:45:01.835Z,992.79
2023-11-12T19:50:02.212Z,992.74
2023-11-12T19:55:01.383Z,992.84
2023-11-12T20:00:01.868Z,993.12
2023-11-12T20:05:01.356Z,993.12
2023-11-12T20:10:02.045Z,993.23
2023-11-12T20:15:02.037Z,993.13
2023-11-12T20:20:01.287Z,993.33
2023-11-12T20:25:01.816Z,993.15
2023-11-12T20:30:01.859Z,993.17
2023-11-12T20:35:02.002Z,993.17
2023-11-12T20:40:02.144Z,993.3
2023-11-12T20:45:01.857Z,993.37
2023-11-12T20:50:01.379Z,993.27
2023-11-12T20:55:01.752Z,993.29
2023-11-12T21:00:01.534Z,993.51
2023-11-12T21:05:01.699Z,993.43
2023-11-12T21:10:02.151Z,993.22
2023-11-12T21:15:01.655Z,993.25
2023-11-12T21:20:02.214Z,993.31
2023-11-12T21:25:02.113Z,993.53
2023-11-12T21:30:01.645Z,993.39
2023-11-12T21:35:01.985Z,993.19
2023-11-12T21:40:02.053Z,993.1
2023-11-12T21:45:02.241Z,993.12
2023-11-12T21:50:01.539Z,993.08
2023-11-12T21:55:01.681Z,993.05
2023-11-12T22:00:02.040Z,993.14
2023-11-12T22:05:01.278Z,993.17
2023-11-12T22:10:01.905Z,993.16
2023-11-12T22:15:02.181Z,993.17
2023-11-12T22:20:02.029Z,993.3
2023-11-12T22:25:09.137Z,993.13
2023-11-12T22:30:01.269Z,993.12
2023-11-12T22:35:01.859Z,993.21
2023-11-12T22:40:02.262Z,993.36
2023-11-12T22:45:02.341Z,993.45
2023-11-12T22:50:02.230Z,993.6
2023-11-12T22:55:01.786Z,993.52
2023-11-12T23:00:02.847Z,993.36
2023-11-12T23:05:09.964Z,993.46
2023-11-12T23:10:01.867Z,993.39
2023-11-12T23:15:02.035Z,993.38
2023-11-12T23:20:01.483Z,993.47
2023-11-12T23:25:02.284Z,993.51
2023-11-12T23:30:02.056Z,993.41
2023-11-12T23:35:02.115Z,993.16
2023-11-12T23:40:02.192Z,993.14
2023-11-12T23:45:01.324Z,992.97
2023-11-12T23:50:01.546Z,992.97
2023-11-12T23:55:01.417Z,993.02
